createdAt,value
2022-08-05T00:00:46.420Z,49.78
2022-08-05T00:02:52.242Z,49.48
2022-08-05T00:04:57.538Z,49.39
2022-08-05T00:06:59.392Z,49.40
2022-08-05T00:09:01.871Z,49.88
2022-08-05T00:11:20.301Z,50.05
2022-08-05T00:13:38.251Z,50.48
2022-08-05T00:15:54.947Z,50.10
2022-08-05T00:17:59.167Z,50.28
2022-08-05T00:20:05.032Z,50.27
2022-08-05T00:22:11.419Z,49.61
2022-08-05T00:24:16.225Z,49.83
2022-08-05T00:26:22.498Z,49.58
2022-08-05T00:28:29.681Z,48.95
2022-08-05T00:30:32.251Z,49.41
2022-08-05T00:32:34.564Z,49.23
2022-08-05T00:34:54.291Z,48.82
2022-08-05T00:37:11.883Z,48.78
2022-08-05T00:39:15.884Z,48.85
2022-08-05T00:41:51.739Z,48.89
2022-08-05T00:43:54.167Z,48.73
2022-08-05T00:45:55.975Z,48.51
2022-08-05T00:48:05.792Z,48.82
2022-08-05T00:50:08.969Z,49.01
2022-08-05T00:52:11.170Z,49.34
2022-08-05T00:54:13.965Z,49.26
2022-08-05T00:56:17.354Z,49.44
2022-08-05T00:58:27.430Z,49.12
2022-08-05T01:00:30.863Z,49.56
2022-08-05T01:02:33.588Z,49.39
2022-08-05T01:04:35.958Z,50.31
2022-08-05T01:06:37.879Z,50.53
2022-08-05T01:08:44.471Z,50.70
2022-08-05T01:10:54.649Z,50.77
2022-08-05T01:13:13.392Z,50.57
2022-08-05T01:15:36.178Z,50.11
2022-08-05T01:17:44.298Z,50.27
2022-08-05T01:20:00.878Z,50.76
2022-08-05T01:22:42.367Z,50.63
2022-08-05T01:25:10.840Z,50.53
2022-08-05T01:27:37.732Z,50.65
2022-08-05T01:29:59.363Z,50.87
2022-08-05T01:32:04.370Z,50.21
2022-08-05T01:35:00.493Z,50.60
2022-08-05T01:37:51.863Z,50.70
2022-08-05T01:39:59.086Z,50.60
2022-08-05T01:42:02.870Z,50.78
2022-08-05T01:44:09.926Z,50.87
2022-08-05T01:46:16.419Z,51.05
2022-08-05T01:48:39.375Z,51.31
2022-08-05T01:50:51.155Z,52.12
2022-08-05T01:52:54.638Z,52.42
2022-08-05T01:54:58.373Z,52.40
2022-08-05T01:58:12.152Z,52.74
2022-08-05T01:59:31.961Z,53.06
2022-08-05T02:01:40.143Z,53.14
2022-08-05T02:03:45.730Z,53.15
2022-08-05T02:05:48.338Z,53.01
2022-08-05T02:07:59.784Z,53.06
2022-08-05T02:10:05.363Z,52.91
2022-08-05T02:12:19.675Z,52.86
2022-08-05T02:14:32.113Z,52.96
2022-08-05T02:16:47.055Z,52.66
2022-08-05T02:19:12.326Z,52.94
2022-08-05T02:21:25.477Z,52.75
2022-08-05T02:23:33.778Z,52.28
2022-08-05T02:25:49.479Z,52.63
2022-08-05T02:27:59.399Z,52.44
2022-08-05T02:30:03.040Z,52.14
2022-08-05T02:32:08.780Z,52.05
2022-08-05T02:34:13.894Z,52.18
2022-08-05T02:36:18.376Z,52.04
2022-08-05T02:38:21.191Z,52.29
2022-08-05T02:40:29.628Z,52.09
2022-08-05T02:42:36.129Z,52.25
2022-08-05T02:44:38.702Z,51.98
2022-08-05T02:46:43.874Z,51.86
2022-08-05T02:48:56.580Z,52.28
2022-08-05T02:51:01.505Z,52.10
2022-08-05T02:53:03.932Z,52.17
2022-08-05T02:55:10.718Z,52.14
2022-08-05T02:58:10.669Z,51.69
2022-08-05T02:59:50.436Z,51.55
2022-08-05T03:01:58.455Z,52.11
2022-08-05T03:04:08.884Z,52.34
2022-08-05T03:06:54.599Z,53.13
2022-08-05T03:08:38.546Z,53.63
2022-08-05T03:11:53.096Z,53.21
2022-08-05T03:13:16.565Z,53.18
2022-08-05T03:15:21.188Z,53.00
2022-08-05T03:17:25.937Z,53.01
2022-08-05T03:19:33.968Z,53.06
2022-08-05T03:21:41.723Z,52.96
2022-08-05T03:23:51.636Z,52.75
2022-08-05T03:26:30.199Z,52.61
2022-08-05T03:28:18.660Z,52.43
2022-08-05T03:30:28.685Z,52.39
2022-08-05T03:32:36.772Z,52.50
2022-08-05T03:34:39.016Z,52.47
2022-08-05T03:36:41.810Z,52.69
2022-08-05T03:38:43.773Z,53.11
2022-08-05T03:40:57.655Z,54.23
2022-08-05T03:43:01.525Z,54.12
2022-08-05T03:45:23.607Z,54.07
2022-08-05T03:47:30.277Z,54.13
2022-08-05T03:49:51.858Z,53.81
2022-08-05T03:52:50.387Z,53.90
2022-08-05T03:55:52.674Z,54.09
2022-08-05T03:57:02.663Z,54.05
2022-08-05T03:59:47.273Z,54.16
2022-08-05T04:01:58.894Z,53.93
2022-08-05T04:04:09.707Z,53.92
2022-08-05T04:06:12.684Z,53.91
2022-08-05T04:08:30.194Z,54.03
2022-08-05T04:10:38.451Z,54.37
2022-08-05T04:14:41.558Z,54.89
2022-08-05T04:16:45.719Z,54.49
2022-08-05T04:18:47.825Z,54.00
2022-08-05T04:20:59.669Z,54.10
2022-08-05T04:23:01.971Z,53.98
2022-08-05T04:25:03.943Z,53.63
2022-08-05T04:27:05.999Z,53.03
2022-08-05T04:29:09.128Z,52.65
2022-08-05T04:31:11.261Z,52.33
2022-08-05T04:33:14.630Z,52.17
2022-08-05T04:35:17.400Z,51.78
2022-08-05T04:37:19.949Z,51.37
2022-08-05T04:39:24.827Z,50.85
2022-08-05T04:41:37.889Z,50.90
2022-08-05T04:43:48.125Z,51.69
2022-08-05T04:45:55.741Z,52.05
2022-08-05T04:48:18.724Z,52.11
2022-08-05T04:50:37.114Z,52.32
2022-08-05T04:52:51.946Z,52.83
2022-08-05T04:54:53.769Z,52.99
2022-08-05T04:56:59.810Z,53.01
2022-08-05T04:59:01.697Z,52.65
2022-08-05T05:02:06.075Z,52.32
2022-08-05T05:03:45.629Z,52.02
2022-08-05T05:06:40.636Z,51.94
2022-08-05T05:08:14.407Z,51.83
2022-08-05T05:10:34.024Z,50.98
2022-08-05T05:12:36.819Z,50.58
2022-08-05T05:14:49.205Z,50.00
2022-08-05T05:16:52.251Z,49.99
2022-08-05T05:19:17.818Z,49.89
2022-08-05T05:21:18.756Z,49.37
2022-08-05T05:23:20.527Z,49.19
2022-08-05T05:25:32.586Z,49.25
2022-08-05T05:27:44.231Z,48.77
2022-08-05T05:30:04.415Z,48.73
2022-08-05T05:32:07.170Z,48.93
2022-08-05T05:34:15.547Z,48.86
2022-08-05T05:36:18.522Z,48.84
2022-08-05T05:38:22.935Z,48.91
2022-08-05T05:40:32.029Z,48.73
2022-08-05T05:42:34.024Z,49.00
2022-08-05T05:44:42.997Z,49.27
2022-08-05T05:46:47.750Z,48.86
2022-08-05T05:48:49.674Z,48.62
2022-08-05T05:50:52.724Z,48.83
2022-08-05T05:52:54.552Z,48.97
2022-08-05T05:55:00.058Z,48.69
2022-08-05T05:57:03.794Z,49.24
2022-08-05T05:59:15.485Z,49.42
2022-08-05T06:01:17.588Z,48.92
2022-08-05T06:03:40.039Z,48.14
2022-08-05T06:05:53.920Z,47.89
2022-08-05T06:08:01.282Z,48.29
2022-08-05T06:10:10.052Z,48.35
2022-08-05T06:12:12.400Z,48.40
2022-08-05T06:14:17.794Z,47.96
2022-08-05T06:16:30.644Z,47.88
2022-08-05T06:18:36.549Z,47.51
2022-08-05T06:20:41.113Z,47.98
2022-08-05T06:22:49.496Z,47.70
2022-08-05T06:24:52.338Z,47.95
2022-08-05T06:26:54.599Z,47.06
2022-08-05T06:29:00.219Z,46.75
2022-08-05T06:31:11.283Z,46.45
2022-08-05T06:33:33.129Z,46.56
2022-08-05T06:36:05.774Z,46.49
2022-08-05T06:38:10.012Z,46.92
2022-08-05T06:40:14.039Z,46.92
2022-08-05T06:42:20.649Z,46.71
2022-08-05T06:44:22.357Z,46.04
2022-08-05T06:46:29.685Z,45.49
2022-08-05T06:48:53.154Z,46.55
2022-08-05T06:51:00.053Z,46.55
2022-08-05T06:53:03.774Z,45.83
2022-08-05T06:55:13.526Z,45.76
2022-08-05T06:57:57.520Z,45.96
2022-08-05T06:59:42.208Z,44.95
2022-08-05T07:01:52.930Z,44.72
2022-08-05T07:03:54.929Z,44.89
2022-08-05T07:05:57.041Z,45.59
2022-08-05T07:07:58.975Z,45.99
2022-08-05T07:10:03.466Z,45.84
2022-08-05T07:12:05.727Z,45.72
2022-08-05T07:14:30.105Z,45.26
2022-08-05T07:17:57.208Z,44.56
2022-08-05T07:19:16.101Z,44.27
2022-08-05T07:21:39.957Z,43.52
2022-08-05T07:23:58.095Z,42.60
2022-08-05T07:26:04.329Z,42.93
2022-08-05T07:28:09.617Z,42.86
2022-08-05T07:30:23.947Z,42.69
2022-08-05T07:32:30.175Z,42.06
2022-08-05T07:34:33.002Z,41.67
2022-08-05T07:36:34.758Z,41.47
2022-08-05T07:38:43.195Z,41.11
2022-08-05T07:40:46.015Z,40.91
2022-08-05T07:42:57.692Z,40.68
2022-08-05T07:45:00.572Z,40.31
2022-08-05T07:47:06.224Z,40.20
2022-08-05T07:49:10.179Z,40.21
2022-08-05T07:51:23.384Z,40.63
2022-08-05T07:53:37.025Z,40.26
2022-08-05T07:56:05.628Z,40.24
2022-08-05T07:58:17.760Z,40.09
2022-08-05T08:00:36.426Z,39.94
2022-08-05T08:03:15.186Z,39.40
2022-08-05T08:05:00.540Z,38.92
2022-08-05T08:07:05.513Z,39.12
2022-08-05T08:09:09.667Z,38.48
2022-08-05T08:11:13.687Z,39.02
2022-08-05T08:13:21.989Z,38.63
2022-08-05T08:16:33.657Z,38.47
2022-08-05T08:17:53.379Z,38.46
2022-08-05T08:20:21.789Z,37.59
2022-08-05T08:22:17.006Z,37.29
2022-08-05T08:24:18.774Z,37.63
2022-08-05T08:26:26.604Z,38.39
2022-08-05T08:28:36.831Z,37.44
2022-08-05T08:30:47.460Z,37.23
2022-08-05T08:32:49.866Z,36.90
2022-08-05T08:34:52.845Z,37.02
2022-08-05T08:37:03.375Z,37.07
2022-08-05T08:39:15.708Z,37.04
2022-08-05T08:41:18.570Z,36.74
2022-08-05T08:45:23.563Z,36.32
2022-08-05T08:45:44.118Z,35.92
2022-08-05T08:48:07.113Z,36.16
2022-08-05T08:50:31.178Z,35.85
2022-08-05T08:52:36.151Z,35.44
2022-08-05T08:54:42.164Z,34.90
2022-08-05T08:56:47.812Z,34.50
2022-08-05T08:58:51.986Z,34.41
2022-08-05T09:00:54.611Z,34.27
2022-08-05T09:02:57.555Z,34.08
2022-08-05T09:05:17.509Z,33.80
2022-08-05T09:07:28.901Z,33.70
2022-08-05T09:09:44.546Z,32.58
2022-08-05T09:11:50.770Z,33.28
2022-08-05T09:14:10.328Z,33.63
2022-08-05T09:16:17.245Z,32.88
2022-08-05T09:18:19.075Z,32.69
2022-08-05T09:20:36.330Z,32.70
2022-08-05T09:23:19.506Z,32.93
2022-08-05T09:25:24.591Z,33.21
2022-08-05T09:28:05.175Z,32.74
2022-08-05T09:30:06.800Z,31.54
2022-08-05T09:32:41.483Z,31.04
2022-08-05T09:34:55.061Z,30.23
2022-08-05T09:36:59.784Z,30.04
2022-08-05T09:39:18.161Z,29.99
2022-08-05T09:41:24.048Z,30.26
2022-08-05T09:43:41.903Z,30.27
2022-08-05T09:46:07.570Z,30.40
2022-08-05T09:48:26.829Z,29.98
2022-08-05T09:50:44.545Z,29.12
2022-08-05T09:52:52.900Z,30.13
2022-08-05T09:55:58.216Z,30.45
2022-08-05T09:57:43.211Z,30.46
2022-08-05T09:59:48.233Z,30.60
2022-08-05T10:01:57.881Z,30.96
2022-08-05T10:04:10.629Z,31.01
2022-08-05T10:06:14.663Z,31.29
2022-08-05T10:08:37.261Z,30.74
2022-08-05T10:10:54.242Z,29.71
2022-08-05T10:12:59.302Z,30.15
2022-08-05T10:15:34.368Z,29.97
2022-08-05T10:17:37.354Z,30.12
2022-08-05T10:20:04.361Z,30.37
2022-08-05T10:22:05.097Z,30.53
2022-08-05T10:24:13.638Z,30.15
2022-08-05T10:26:16.036Z,30.56
2022-08-05T10:28:29.258Z,30.26
2022-08-05T10:31:19.891Z,29.53
2022-08-05T10:33:01.920Z,29.05
2022-08-05T10:35:05.106Z,29.42
2022-08-05T10:37:07.050Z,29.29
2022-08-05T10:39:25.217Z,28.88
2022-08-05T10:41:47.384Z,28.32
2022-08-05T10:43:55.208Z,28.48
2022-08-05T10:46:06.309Z,28.43
2022-08-05T10:48:39.597Z,28.24
2022-08-05T10:51:06.210Z,28.30
2022-08-05T10:53:45.671Z,28.00
2022-08-05T10:56:21.488Z,27.83
2022-08-05T10:58:47.809Z,28.16
2022-08-05T11:00:55.338Z,27.78
2022-08-05T11:03:24.501Z,28.43
2022-08-05T11:05:29.329Z,28.56
2022-08-05T11:08:02.636Z,28.69
2022-08-05T11:10:04.078Z,28.79
2022-08-05T11:12:50.512Z,29.35
2022-08-05T11:16:00.210Z,29.71
2022-08-05T11:18:00.250Z,29.24
2022-08-05T11:20:16.695Z,29.39
2022-08-05T11:22:42.269Z,29.51
2022-08-05T11:24:50.694Z,29.56
2022-08-05T11:27:28.966Z,29.39
2022-08-05T11:29:59.863Z,29.49
2022-08-05T11:32:28.538Z,29.35
2022-08-05T11:34:39.013Z,29.33
2022-08-05T11:36:47.421Z,28.17
2022-08-05T11:38:57.760Z,28.31
2022-08-05T11:41:12.692Z,28.51
2022-08-05T11:43:21.631Z,28.95
2022-08-05T11:46:23.439Z,29.22
2022-08-05T11:48:11.504Z,29.41
2022-08-05T11:50:14.348Z,29.20
2022-08-05T11:52:29.323Z,29.22
2022-08-05T11:54:38.130Z,29.44
2022-08-05T11:56:45.146Z,29.27
2022-08-05T11:58:53.321Z,28.79
2022-08-05T12:01:04.608Z,28.93
2022-08-05T12:03:24.110Z,28.95
2022-08-05T12:05:36.354Z,29.13
2022-08-05T12:08:08.520Z,28.99
2022-08-05T12:10:09.611Z,28.93
2022-08-05T12:12:13.371Z,28.76
2022-08-05T12:14:15.446Z,28.41
2022-08-05T12:16:20.081Z,27.98
2022-08-05T12:18:33.199Z,27.44
2022-08-05T12:20:38.735Z,27.17
2022-08-05T12:22:40.667Z,26.97
2022-08-05T12:24:50.587Z,26.87
2022-08-05T12:26:54.009Z,26.81
2022-08-05T12:28:56.007Z,27.33
2022-08-05T12:31:01.944Z,26.60
2022-08-05T12:33:07.146Z,26.36
2022-08-05T12:35:37.259Z,26.96
2022-08-05T12:37:42.680Z,26.76
2022-08-05T12:39:48.625Z,26.16
2022-08-05T12:41:59.353Z,26.24
2022-08-05T12:44:05.344Z,26.51
2022-08-05T12:46:26.435Z,27.08
2022-08-05T12:48:39.009Z,27.73
2022-08-05T12:50:41.814Z,28.18
2022-08-05T12:52:56.880Z,27.83
2022-08-05T12:54:59.704Z,28.44
2022-08-05T12:57:04.670Z,29.15
2022-08-05T12:59:20.736Z,29.55
2022-08-05T13:02:03.861Z,30.05
2022-08-05T13:03:51.636Z,30.18
2022-08-05T13:05:53.963Z,30.08
2022-08-05T13:08:00.623Z,29.83
2022-08-05T13:10:04.760Z,29.97
2022-08-05T13:12:13.189Z,29.91
2022-08-05T13:14:36.355Z,29.73
2022-08-05T13:16:56.480Z,29.12
2022-08-05T13:18:59.139Z,29.40
2022-08-05T13:21:00.881Z,28.88
2022-08-05T13:23:02.802Z,29.03
2022-08-05T13:25:19.551Z,28.47
2022-08-05T13:27:38.253Z,27.55
2022-08-05T13:30:35.220Z,27.95
2022-08-05T13:32:04.549Z,27.73
2022-08-05T13:34:25.160Z,28.23
2022-08-05T13:36:46.468Z,28.16
2022-08-05T13:38:51.852Z,28.88
2022-08-05T13:40:53.999Z,29.03
2022-08-05T13:42:55.899Z,29.01
2022-08-05T13:44:57.769Z,29.19
2022-08-05T13:47:02.349Z,29.17
2022-08-05T13:49:11.998Z,28.60
2022-08-05T13:51:14.154Z,27.89
2022-08-05T13:53:16.278Z,27.76
2022-08-05T13:55:41.880Z,27.74
2022-08-05T13:57:49.033Z,27.52
2022-08-05T13:59:57.157Z,27.65
2022-08-05T14:02:02.195Z,27.53
2022-08-05T14:04:26.436Z,27.12
2022-08-05T14:06:29.105Z,27.42
2022-08-05T14:08:32.642Z,26.51
2022-08-05T14:10:35.556Z,26.61
2022-08-05T14:12:42.884Z,26.43
2022-08-05T14:14:51.474Z,26.61
2022-08-05T14:16:55.325Z,26.25
2022-08-05T14:19:04.428Z,26.39
2022-08-05T14:22:07.047Z,26.16
2022-08-05T14:23:32.893Z,25.93
2022-08-05T14:25:43.567Z,26.29
2022-08-05T14:27:49.068Z,26.51
2022-08-05T14:29:52.036Z,26.22
2022-08-05T14:32:03.917Z,25.83
2022-08-05T14:34:14.843Z,25.97
2022-08-05T14:36:20.615Z,25.73
2022-08-05T14:38:31.833Z,25.62
2022-08-05T14:40:35.818Z,25.00
2022-08-05T14:42:38.018Z,24.87
2022-08-05T14:44:40.192Z,24.88
2022-08-05T14:46:43.326Z,25.22
2022-08-05T14:48:49.860Z,24.99
2022-08-05T14:50:51.806Z,24.74
2022-08-05T14:52:57.669Z,25.31
2022-08-05T14:55:01.162Z,25.45
2022-08-05T14:57:05.399Z,25.49
2022-08-05T14:59:11.622Z,25.83
2022-08-05T15:01:16.088Z,25.59
2022-08-05T15:03:19.210Z,25.23
2022-08-05T15:05:30.091Z,25.30
2022-08-05T15:08:07.707Z,25.06
2022-08-05T15:10:10.572Z,25.04
2022-08-05T15:12:16.815Z,25.07
2022-08-05T15:14:33.631Z,25.52
2022-08-05T15:16:37.905Z,25.03
2022-08-05T15:18:42.904Z,25.43
2022-08-05T15:20:49.160Z,26.09
2022-08-05T15:22:52.183Z,26.23
2022-08-05T15:24:59.287Z,26.42
2022-08-05T15:27:01.193Z,25.95
2022-08-05T15:29:05.470Z,25.84
2022-08-05T15:31:08.309Z,26.22
2022-08-05T15:33:10.754Z,25.88
2022-08-05T15:35:13.571Z,26.14
2022-08-05T15:38:08.722Z,26.19
2022-08-05T15:40:58.700Z,26.37
2022-08-05T15:42:00.729Z,26.62
2022-08-05T15:44:06.001Z,26.46
2022-08-05T15:46:09.078Z,26.68
2022-08-05T15:48:14.518Z,26.18
2022-08-05T15:50:16.932Z,25.87
2022-08-05T15:52:29.432Z,26.68
2022-08-05T15:54:41.633Z,26.35
2022-08-05T15:56:44.920Z,26.38
2022-08-05T15:58:48.402Z,26.52
2022-08-05T16:00:57.101Z,27.09
2022-08-05T16:03:12.370Z,27.18
2022-08-05T16:05:16.762Z,27.22
2022-08-05T16:07:21.446Z,27.31
2022-08-05T16:09:25.644Z,27.67
2022-08-05T16:11:42.938Z,27.93
2022-08-05T16:13:45.789Z,27.85
2022-08-05T16:15:47.658Z,27.78
2022-08-05T16:17:57.687Z,28.12
2022-08-05T16:20:05.658Z,28.49
2022-08-05T16:22:23.287Z,28.54
2022-08-05T16:24:40.671Z,28.61
2022-08-05T16:26:57.242Z,28.52
2022-08-05T16:28:59.055Z,28.42
2022-08-05T16:31:00.892Z,28.23
2022-08-05T16:33:03.203Z,28.44
2022-08-05T16:35:05.521Z,28.54
2022-08-05T16:38:02.565Z,28.48
2022-08-05T16:40:05.350Z,28.48
2022-08-05T16:42:15.252Z,28.51
2022-08-05T16:44:16.438Z,28.31
2022-08-05T16:46:24.228Z,27.67
2022-08-05T16:48:33.203Z,27.69
2022-08-05T16:50:36.102Z,28.17
2022-08-05T16:52:37.922Z,28.23
2022-08-05T16:54:47.428Z,28.43
2022-08-05T16:56:51.899Z,28.79
2022-08-05T16:58:54.114Z,28.69
2022-08-05T17:00:56.277Z,28.52
2022-08-05T17:02:58.257Z,28.74
2022-08-05T17:05:00.283Z,28.55
2022-08-05T17:07:03.623Z,28.75
2022-08-05T17:09:13.216Z,28.99
2022-08-05T17:11:16.879Z,28.75
2022-08-05T17:13:21.597Z,28.79
2022-08-05T17:15:48.824Z,28.93
2022-08-05T17:17:55.479Z,28.98
2022-08-05T17:20:04.585Z,29.32
2022-08-05T17:22:07.720Z,29.40
2022-08-05T17:24:30.343Z,29.84
2022-08-05T17:26:33.268Z,30.15
2022-08-05T17:28:36.292Z,30.12
2022-08-05T17:30:50.724Z,30.26
2022-08-05T17:32:54.172Z,30.52
2022-08-05T17:34:55.838Z,30.57
2022-08-05T17:37:00.801Z,30.37
2022-08-05T17:39:03.030Z,30.89
2022-08-05T17:41:07.557Z,30.76
2022-08-05T17:43:47.274Z,30.75
2022-08-05T17:45:46.901Z,30.87
2022-08-05T17:47:54.079Z,31.06
2022-08-05T17:50:04.234Z,31.12
2022-08-05T17:52:12.339Z,31.13
2022-08-05T17:54:14.335Z,31.05
2022-08-05T17:56:28.429Z,31.23
2022-08-05T17:58:32.376Z,31.46
2022-08-05T18:00:34.686Z,31.17
2022-08-05T18:02:37.317Z,31.42
2022-08-05T18:04:51.175Z,31.28
2022-08-05T18:07:00.253Z,31.69
2022-08-05T18:09:03.671Z,31.69
2022-08-05T18:11:05.657Z,31.71
2022-08-05T18:13:12.451Z,31.81
2022-08-05T18:15:15.055Z,32.13
2022-08-05T18:17:59.194Z,31.92
2022-08-05T18:19:39.233Z,32.55
2022-08-05T18:22:07.638Z,32.52
2022-08-05T18:24:08.643Z,32.73
2022-08-05T18:26:14.861Z,32.59
2022-08-05T18:28:22.043Z,32.92
2022-08-05T18:30:30.466Z,32.82
2022-08-05T18:32:32.401Z,33.01
2022-08-05T18:34:41.311Z,33.17
2022-08-05T18:36:44.920Z,33.30
2022-08-05T18:38:48.736Z,33.64
2022-08-05T18:41:57.470Z,33.69
2022-08-05T18:43:16.436Z,33.57
2022-08-05T18:45:19.128Z,33.78
2022-08-05T18:47:22.550Z,33.93
2022-08-05T18:49:57.984Z,34.11
2022-08-05T18:52:33.086Z,34.27
2022-08-05T18:54:35.282Z,34.23
2022-08-05T18:56:37.024Z,34.69
2022-08-05T18:58:40.130Z,34.60
2022-08-05T19:00:44.973Z,34.35
2022-08-05T19:02:50.483Z,34.45
2022-08-05T19:05:02.800Z,34.41
2022-08-05T19:07:16.151Z,34.64
2022-08-05T19:09:18.137Z,34.89
2022-08-05T19:11:27.985Z,34.74
2022-08-05T19:13:30.776Z,35.14
2022-08-05T19:15:59.109Z,34.87
2022-08-05T19:18:10.059Z,34.71
2022-08-05T19:20:14.908Z,35.11
2022-08-05T19:22:27.424Z,35.27
2022-08-05T19:24:34.527Z,35.32
2022-08-05T19:26:44.084Z,35.80
2022-08-05T19:28:56.850Z,36.00
2022-08-05T19:30:59.238Z,35.96
2022-08-05T19:33:05.046Z,35.75
2022-08-05T19:35:10.980Z,36.16
2022-08-05T19:37:12.803Z,36.11
2022-08-05T19:39:17.152Z,36.21
2022-08-05T19:41:22.130Z,36.35
2022-08-05T19:44:05.296Z,37.10
2022-08-05T19:46:04.667Z,37.26
2022-08-05T19:48:18.653Z,37.75
2022-08-05T19:50:21.866Z,37.37
2022-08-05T19:52:31.581Z,37.34
2022-08-05T19:54:35.244Z,37.26
2022-08-05T19:56:38.746Z,36.96
2022-08-05T19:58:53.910Z,37.13
2022-08-05T20:00:56.684Z,37.34
2022-08-05T20:02:59.746Z,37.16
2022-08-05T20:05:02.483Z,37.87
2022-08-05T20:07:10.226Z,37.51
2022-08-05T20:09:15.402Z,37.75
2022-08-05T20:11:20.156Z,37.88
2022-08-05T20:13:30.341Z,37.33
2022-08-05T20:15:51.687Z,37.27
2022-08-05T20:18:01.354Z,37.86
2022-08-05T20:20:09.532Z,38.32
2022-08-05T20:22:12.986Z,38.90
2022-08-05T20:24:16.108Z,39.94
2022-08-05T20:26:19.813Z,40.58
2022-08-05T20:28:21.581Z,40.58
2022-08-05T20:30:26.443Z,40.95
2022-08-05T20:32:28.452Z,41.21
2022-08-05T20:34:30.560Z,41.78
2022-08-05T20:36:32.852Z,42.30
2022-08-05T20:38:35.694Z,42.62
2022-08-05T20:40:37.697Z,42.67
2022-08-05T20:42:44.906Z,42.68
2022-08-05T20:44:46.858Z,42.65
2022-08-05T20:46:49.021Z,42.56
2022-08-05T20:48:51.168Z,42.52
2022-08-05T20:50:53.144Z,43.00
2022-08-05T20:52:55.049Z,43.34
2022-08-05T20:55:15.988Z,43.33
2022-08-05T20:57:42.686Z,43.08
2022-08-05T21:00:10.619Z,42.99
2022-08-05T21:02:02.786Z,42.44
2022-08-05T21:04:07.359Z,42.34
2022-08-05T21:06:28.534Z,42.35
2022-08-05T21:08:41.315Z,42.29
2022-08-05T21:10:48.625Z,42.15
2022-08-05T21:12:58.158Z,42.39
2022-08-05T21:15:11.232Z,42.70
2022-08-05T21:17:14.307Z,42.93
2022-08-05T21:19:15.997Z,43.03
2022-08-05T21:21:17.906Z,43.58
2022-08-05T21:23:26.151Z,43.50
2022-08-05T21:25:33.510Z,43.63
2022-08-05T21:27:38.967Z,43.11
2022-08-05T21:29:41.581Z,43.33
2022-08-05T21:31:51.022Z,42.94
2022-08-05T21:33:53.352Z,42.78
2022-08-05T21:35:55.809Z,42.81
2022-08-05T21:38:00.586Z,43.11
2022-08-05T21:40:05.734Z,43.67
2022-08-05T21:42:40.854Z,44.08
2022-08-05T21:44:32.758Z,44.25
2022-08-05T21:46:34.948Z,44.34
2022-08-05T21:48:36.880Z,43.90
2022-08-05T21:50:53.125Z,43.93
2022-08-05T21:53:04.738Z,44.01
2022-08-05T21:55:42.704Z,43.74
2022-08-05T21:57:42.613Z,43.58
2022-08-05T22:00:02.920Z,43.49
2022-08-05T22:02:06.848Z,43.26
2022-08-05T22:04:13.330Z,43.50
2022-08-05T22:06:16.208Z,43.68
2022-08-05T22:08:35.077Z,44.01
2022-08-05T22:10:36.936Z,44.56
2022-08-05T22:12:40.343Z,44.15
2022-08-05T22:14:46.629Z,44.59
2022-08-05T22:16:51.301Z,44.61
2022-08-05T22:18:58.697Z,44.58
2022-08-05T22:21:03.939Z,44.36
2022-08-05T22:24:00.926Z,44.74
2022-08-05T22:26:09.888Z,44.87
2022-08-05T22:28:13.284Z,45.36
2022-08-05T22:30:15.796Z,45.37
2022-08-05T22:32:19.036Z,45.42
2022-08-05T22:34:28.507Z,45.38
2022-08-05T22:36:43.099Z,45.15
2022-08-05T22:38:48.742Z,44.96
2022-08-05T22:40:54.940Z,44.27
2022-08-05T22:42:58.266Z,44.32
2022-08-05T22:45:00.128Z,44.00
2022-08-05T22:47:05.030Z,44.36
2022-08-05T22:49:23.394Z,44.51
2022-08-05T22:52:05.027Z,44.67
2022-08-05T22:53:55.523Z,44.54
2022-08-05T22:55:59.437Z,44.73
2022-08-05T22:58:01.333Z,44.85
2022-08-05T23:00:08.168Z,44.91
2022-08-05T23:02:13.820Z,45.13
2022-08-05T23:04:18.733Z,45.53
2022-08-05T23:06:21.535Z,46.45
2022-08-05T23:08:28.051Z,46.46
2022-08-05T23:10:30.051Z,46.25
2022-08-05T23:12:33.349Z,46.12
2022-08-05T23:14:37.108Z,45.96
2022-08-05T23:16:57.806Z,45.88
2022-08-05T23:19:02.498Z,45.72
2022-08-05T23:21:04.493Z,45.48
2022-08-05T23:23:08.278Z,45.72
2022-08-05T23:25:11.485Z,45.56
2022-08-05T23:27:13.556Z,46.46
2022-08-05T23:29:17.166Z,47.16
2022-08-05T23:31:21.290Z,47.03
2022-08-05T23:33:26.396Z,47.19
2022-08-05T23:35:46.289Z,46.91
2022-08-05T23:37:48.137Z,47.09
2022-08-05T23:39:54.348Z,46.66
2022-08-05T23:41:57.261Z,46.79
2022-08-05T23:44:05.230Z,46.34
2022-08-05T23:46:20.357Z,46.43
2022-08-05T23:48:23.723Z,46.92
2022-08-05T23:50:28.210Z,46.95
2022-08-05T23:52:36.119Z,46.74
2022-08-05T23:54:39.499Z,46.68
2022-08-05T23:56:41.843Z,46.57
2022-08-05T23:58:44.443Z,46.97
